Terminal Aerodrome Forecast
Issued by NWS Wichita, KS

Home | Current Version | Previous Version | Text Only | Print | Product List | Glossary On
Versions: 1 2 3 4 5 6 7 8 9 10 11 12 13 14 15 16 17 18
041
FTUS43 KICT 122320
TAFICT
TAF
KICT 122320Z 1300/1324 03011KT P6SM SCT090
     FM131100 08009KT P6SM SCT150
     FM131400 10010KT P6SM SCT050
     FM131900 14013KT P6SM SCT150=

USA.gov is the U.S. government's official web portal to all federal, state and local government web resources and services.